createdAt,value
2022-10-12T00:00:45.513Z,90.15
2022-10-12T00:03:13.548Z,89.84
2022-10-12T00:05:42.659Z,89.85
2022-10-12T00:08:10.504Z,89.51
2022-10-12T00:10:43.130Z,89.91
2022-10-12T00:13:12.609Z,89.88
2022-10-12T00:15:41.675Z,89.67
2022-10-12T00:18:10.167Z,89.34
2022-10-12T00:20:38.300Z,88.96
2022-10-12T00:23:07.336Z,88.96
2022-10-12T00:25:39.286Z,89.23
2022-10-12T00:28:08.149Z,89.18
2022-10-12T00:30:40.764Z,89.28
2022-10-12T00:33:08.657Z,88.91
2022-10-12T00:35:36.573Z,88.77
2022-10-12T00:38:04.556Z,88.48
2022-10-12T00:40:32.495Z,88.79
2022-10-12T00:43:00.402Z,88.06
2022-10-12T00:45:28.684Z,88.07
2022-10-12T00:48:00.787Z,87.73
2022-10-12T00:50:32.344Z,87.44
2022-10-12T00:53:04.830Z,87.26
2022-10-12T00:55:37.015Z,87.49
2022-10-12T00:58:06.939Z,87.39
2022-10-12T01:00:35.364Z,87.67
2022-10-12T01:03:07.307Z,87.87
2022-10-12T01:05:35.486Z,87.23
2022-10-12T01:08:03.823Z,87.34
2022-10-12T01:10:31.861Z,87.79
2022-10-12T01:13:00.617Z,87.68
2022-10-12T01:15:34.695Z,87.72
2022-10-12T01:18:12.671Z,87.64
2022-10-12T01:20:59.752Z,86.95
2022-10-12T01:23:57.641Z,87.46
2022-10-12T01:26:52.689Z,87.21
2022-10-12T01:29:35.815Z,88.66
2022-10-12T01:32:12.739Z,89.02
2022-10-12T01:34:47.212Z,88.46
2022-10-12T01:37:20.968Z,89.50
2022-10-12T01:39:54.588Z,89.71
2022-10-12T01:42:27.809Z,89.73
2022-10-12T01:45:03.504Z,89.66
2022-10-12T01:47:33.868Z,89.75
2022-10-12T01:50:02.993Z,89.91
2022-10-12T01:52:32.964Z,90.26
2022-10-12T01:55:20.773Z,90.00
2022-10-12T01:58:05.248Z,90.11
2022-10-12T02:00:39.188Z,90.12
2022-10-12T02:03:17.451Z,90.15
2022-10-12T02:05:49.311Z,90.67
2022-10-12T02:08:24.349Z,90.75
2022-10-12T02:10:57.852Z,90.16
2022-10-12T02:13:28.338Z,90.58
2022-10-12T02:15:57.508Z,90.44
2022-10-12T02:18:29.742Z,89.79
2022-10-12T02:21:00.641Z,89.19
2022-10-12T02:23:30.097Z,89.64
2022-10-12T02:25:59.999Z,88.87
2022-10-12T02:28:31.156Z,88.73
2022-10-12T02:31:03.618Z,88.90
2022-10-12T02:33:39.085Z,89.00
2022-10-12T02:36:12.822Z,89.04
2022-10-12T02:38:46.491Z,89.14
2022-10-12T02:41:20.298Z,88.43
2022-10-12T02:43:53.363Z,88.14
2022-10-12T02:46:25.575Z,88.07
2022-10-12T02:48:57.137Z,88.58
2022-10-12T02:51:27.312Z,88.84
2022-10-12T02:53:55.319Z,88.37
2022-10-12T02:56:23.439Z,88.08
2022-10-12T02:58:51.280Z,88.49
2022-10-12T03:01:19.176Z,88.49
2022-10-12T03:03:47.311Z,88.20
2022-10-12T03:06:16.568Z,87.58
2022-10-12T03:08:44.398Z,88.33
2022-10-12T03:11:14.922Z,88.27
2022-10-12T03:13:42.839Z,87.74
2022-10-12T03:16:12.767Z,87.48
2022-10-12T03:18:41.197Z,87.02
2022-10-12T03:21:09.567Z,87.54
2022-10-12T03:23:39.017Z,87.44
2022-10-12T03:26:07.588Z,87.46
2022-10-12T03:28:36.512Z,87.42
2022-10-12T03:31:05.223Z,87.77
2022-10-12T03:33:33.319Z,87.74
2022-10-12T03:36:01.268Z,87.80
2022-10-12T03:38:29.127Z,87.80
2022-10-12T03:41:01.766Z,87.87
2022-10-12T03:43:32.134Z,87.86
2022-10-12T03:46:00.029Z,87.79
2022-10-12T03:48:27.865Z,87.81
2022-10-12T03:50:55.735Z,87.77
2022-10-12T03:53:23.692Z,87.21
2022-10-12T03:55:51.530Z,87.49
2022-10-12T03:58:20.695Z,87.04
2022-10-12T04:00:48.904Z,87.49
2022-10-12T04:03:16.748Z,87.55
2022-10-12T04:05:44.597Z,87.54
2022-10-12T04:08:12.543Z,87.32
2022-10-12T04:10:40.396Z,87.80
2022-10-12T04:13:08.223Z,87.22
2022-10-12T04:15:37.458Z,87.26
2022-10-12T04:18:05.467Z,86.62
2022-10-12T04:20:33.414Z,87.18
2022-10-12T04:23:01.564Z,87.03
2022-10-12T04:25:30.352Z,87.46
2022-10-12T04:27:58.439Z,87.79
2022-10-12T04:30:26.655Z,86.85
2022-10-12T04:32:56.566Z,86.87
2022-10-12T04:35:24.432Z,86.74
2022-10-12T04:37:52.538Z,87.33
2022-10-12T04:40:20.459Z,87.92
2022-10-12T04:42:48.345Z,87.69
2022-10-12T04:45:16.499Z,87.99
2022-10-12T04:47:44.580Z,87.68
2022-10-12T04:50:13.957Z,87.92
2022-10-12T04:52:41.962Z,87.85
2022-10-12T04:55:10.944Z,88.32
2022-10-12T04:57:39.129Z,88.69
2022-10-12T05:00:08.306Z,88.91
2022-10-12T05:02:36.427Z,89.13
2022-10-12T05:05:04.536Z,89.18
2022-10-12T05:07:33.951Z,89.43
2022-10-12T05:10:01.928Z,89.56
2022-10-12T05:12:29.838Z,89.82
2022-10-12T05:14:57.835Z,89.95
2022-10-12T05:17:25.846Z,90.47
2022-10-12T05:19:54.336Z,89.93
2022-10-12T05:22:22.299Z,91.27
2022-10-12T05:24:53.913Z,91.68
2022-10-12T05:27:22.074Z,92.24
2022-10-12T05:29:50.074Z,92.26
2022-10-12T05:32:18.249Z,92.00
2022-10-12T05:34:46.197Z,92.83
2022-10-12T05:37:14.112Z,93.05
2022-10-12T05:39:41.965Z,93.47
2022-10-12T05:42:11.675Z,93.56
2022-10-12T05:44:39.678Z,93.51
2022-10-12T05:47:07.725Z,93.88
2022-10-12T05:49:35.748Z,93.90
2022-10-12T05:52:04.168Z,94.23
2022-10-12T05:54:32.199Z,94.23
2022-10-12T05:57:00.194Z,94.55
2022-10-12T05:59:29.509Z,94.82
2022-10-12T06:01:57.797Z,94.45
2022-10-12T06:04:25.820Z,94.33
2022-10-12T06:06:53.872Z,94.09
2022-10-12T06:09:21.897Z,94.11
2022-10-12T06:11:50.390Z,94.08
2022-10-12T06:14:18.377Z,94.28
2022-10-12T06:16:51.089Z,94.13
2022-10-12T06:19:22.445Z,94.00
2022-10-12T06:21:50.357Z,93.94
2022-10-12T06:24:18.196Z,93.90
2022-10-12T06:26:46.188Z,93.43
2022-10-12T06:29:14.218Z,93.29
2022-10-12T06:31:42.326Z,93.10
2022-10-12T06:34:11.705Z,93.46
2022-10-12T06:36:39.699Z,93.41
2022-10-12T06:39:08.116Z,92.74
2022-10-12T06:41:36.338Z,92.65
2022-10-12T06:44:04.325Z,92.95
2022-10-12T06:46:32.444Z,92.07
2022-10-12T06:49:00.574Z,91.71
2022-10-12T06:51:29.919Z,91.61
2022-10-12T06:53:57.841Z,91.58
2022-10-12T06:56:25.961Z,91.16
2022-10-12T06:58:56.906Z,91.33
2022-10-12T07:01:24.868Z,90.98
2022-10-12T07:03:55.058Z,90.42
2022-10-12T07:06:26.397Z,90.19
2022-10-12T07:08:56.825Z,90.04
2022-10-12T07:11:24.791Z,89.84
2022-10-12T07:13:52.738Z,89.33
2022-10-12T07:16:21.001Z,89.36
2022-10-12T07:18:49.428Z,89.63
2022-10-12T07:21:17.769Z,89.30
2022-10-12T07:23:46.352Z,89.06
2022-10-12T07:26:15.788Z,87.99
2022-10-12T07:28:43.785Z,87.23
2022-10-12T07:31:11.993Z,86.65
2022-10-12T07:33:39.998Z,86.45
2022-10-12T07:36:21.112Z,86.49
2022-10-12T07:38:50.096Z,85.80
2022-10-12T07:41:19.500Z,85.48
2022-10-12T07:43:47.507Z,85.49
2022-10-12T07:46:15.578Z,85.13
2022-10-12T07:48:47.482Z,84.37
2022-10-12T07:51:18.116Z,83.73
2022-10-12T07:53:46.186Z,83.23
2022-10-12T07:56:16.300Z,82.21
2022-10-12T07:58:50.102Z,81.04
2022-10-12T08:01:19.283Z,80.79
2022-10-12T08:03:47.253Z,80.32
2022-10-12T08:06:17.249Z,80.02
2022-10-12T08:08:46.192Z,79.23
2022-10-12T08:11:14.641Z,78.42
2022-10-12T08:13:43.417Z,78.67
2022-10-12T08:16:15.498Z,78.28
2022-10-12T08:18:44.517Z,77.33
2022-10-12T08:21:15.231Z,76.13
2022-10-12T08:27:33.705Z,73.69
2022-10-12T08:33:43.923Z,73.25
2022-10-12T08:36:12.451Z,72.76
2022-10-12T08:38:40.605Z,72.07
2022-10-12T08:41:19.856Z,71.46
2022-10-12T08:43:57.976Z,71.00
2022-10-12T08:46:28.098Z,70.97
2022-10-12T08:49:02.881Z,69.93
2022-10-12T08:51:34.863Z,70.12
2022-10-12T08:54:07.852Z,70.15
2022-10-12T08:56:36.333Z,69.78
2022-10-12T08:59:04.482Z,69.91
2022-10-12T09:01:37.545Z,69.13
2022-10-12T09:04:18.193Z,68.08
2022-10-12T09:06:51.105Z,68.22
2022-10-12T09:09:44.027Z,66.35
2022-10-12T09:12:28.323Z,67.55
2022-10-12T09:15:01.532Z,66.60
2022-10-12T09:17:34.011Z,66.88
2022-10-12T09:20:08.353Z,66.35
2022-10-12T09:22:36.624Z,66.84
2022-10-12T09:25:05.030Z,66.08
2022-10-12T09:27:33.078Z,64.89
2022-10-12T09:30:05.423Z,64.74
2022-10-12T09:32:59.722Z,64.52
2022-10-12T09:35:29.346Z,64.91
2022-10-12T09:37:57.234Z,63.29
2022-10-12T09:40:28.840Z,62.94
2022-10-12T09:42:59.324Z,62.29
2022-10-12T09:45:27.542Z,61.72
2022-10-12T09:48:13.648Z,60.45
2022-10-12T09:50:46.106Z,61.23
2022-10-12T09:53:25.249Z,61.62
2022-10-12T09:55:55.211Z,60.92
2022-10-12T09:58:23.531Z,61.15
2022-10-12T10:01:13.762Z,60.30
2022-10-12T10:03:41.693Z,60.35
2022-10-12T10:06:10.989Z,59.51
2022-10-12T10:08:42.976Z,58.96
2022-10-12T10:11:20.620Z,57.65
2022-10-12T10:13:52.153Z,58.32
2022-10-12T10:16:23.042Z,58.30
2022-10-12T10:18:56.567Z,58.60
2022-10-12T10:21:33.124Z,57.24
2022-10-12T10:24:03.055Z,58.44
2022-10-12T10:26:51.197Z,58.25
2022-10-12T10:29:31.882Z,57.26
2022-10-12T10:32:23.689Z,57.14
2022-10-12T10:35:02.693Z,58.18
2022-10-12T10:37:35.394Z,57.32
2022-10-12T10:40:04.121Z,56.43
2022-10-12T10:42:33.879Z,56.24
2022-10-12T10:45:04.321Z,57.26
2022-10-12T10:47:34.743Z,57.10
2022-10-12T10:50:04.664Z,56.66
2022-10-12T10:52:36.494Z,56.68
2022-10-12T10:55:19.846Z,55.09
2022-10-12T10:57:58.057Z,54.81
2022-10-12T11:00:38.509Z,55.87
2022-10-12T11:03:13.238Z,55.61
2022-10-12T11:05:45.840Z,55.94
2022-10-12T11:08:20.615Z,54.29
2022-10-12T11:10:53.956Z,54.15
2022-10-12T11:13:25.922Z,54.11
2022-10-12T11:15:58.794Z,52.27
2022-10-12T11:18:32.220Z,53.00
2022-10-12T11:21:05.902Z,52.83
2022-10-12T11:23:43.498Z,53.28
2022-10-12T11:26:20.343Z,52.15
2022-10-12T11:28:48.454Z,50.71
2022-10-12T11:31:21.617Z,51.34
2022-10-12T11:33:50.613Z,50.43
2022-10-12T11:36:22.777Z,49.69
2022-10-12T11:38:56.679Z,49.42
2022-10-12T11:41:35.555Z,50.82
2022-10-12T11:44:08.742Z,50.45
2022-10-12T11:46:41.763Z,50.67
2022-10-12T11:49:16.382Z,50.49
2022-10-12T11:51:48.890Z,50.39
2022-10-12T11:54:28.292Z,50.90
2022-10-12T11:56:59.970Z,50.85
2022-10-12T11:59:33.554Z,50.68
2022-10-12T12:02:17.707Z,49.91
2022-10-12T12:04:47.235Z,51.21
2022-10-12T12:07:48.319Z,51.44
2022-10-12T12:11:03.456Z,49.64
2022-10-12T12:13:31.731Z,50.52
2022-10-12T12:16:33.915Z,48.88
2022-10-12T12:19:41.179Z,49.65
2022-10-12T12:22:34.225Z,50.05
2022-10-12T12:25:05.971Z,49.87
2022-10-12T12:27:41.313Z,49.64
2022-10-12T12:30:29.290Z,50.11
2022-10-12T12:32:59.575Z,49.88
2022-10-12T12:35:35.271Z,49.22
2022-10-12T12:38:08.277Z,48.74
2022-10-12T12:40:37.255Z,49.44
2022-10-12T12:43:36.167Z,49.42
2022-10-12T12:46:06.123Z,49.59
2022-10-12T12:49:05.426Z,49.06
2022-10-12T12:51:43.644Z,48.83
2022-10-12T12:54:19.480Z,49.24
2022-10-12T12:57:12.706Z,47.82
2022-10-12T13:00:20.122Z,48.97
2022-10-12T13:03:21.845Z,48.72
2022-10-12T13:06:22.687Z,48.47
2022-10-12T13:09:18.156Z,48.90
2022-10-12T13:12:13.460Z,49.86
2022-10-12T13:14:55.795Z,49.45
2022-10-12T13:17:47.904Z,49.81
2022-10-12T13:20:20.854Z,49.71
2022-10-12T13:22:50.987Z,48.44
2022-10-12T13:25:28.641Z,49.12
2022-10-12T13:27:58.001Z,48.59
2022-10-12T13:30:33.878Z,48.33
2022-10-12T13:33:08.073Z,48.06
2022-10-12T13:35:41.402Z,48.68
2022-10-12T13:38:21.169Z,48.68
2022-10-12T13:40:54.613Z,48.95
2022-10-12T13:43:29.992Z,48.19
2022-10-12T13:45:58.315Z,48.08
2022-10-12T13:48:53.868Z,48.58
2022-10-12T13:51:25.243Z,49.01
2022-10-12T13:53:53.538Z,49.51
2022-10-12T13:56:26.327Z,49.66
2022-10-12T13:59:00.142Z,49.67
2022-10-12T14:01:28.377Z,49.88
2022-10-12T14:04:05.598Z,50.18
2022-10-12T14:06:37.133Z,50.04
2022-10-12T14:09:10.826Z,50.00
2022-10-12T14:11:40.176Z,49.70
2022-10-12T14:14:18.537Z,49.53
2022-10-12T14:16:46.669Z,50.06
2022-10-12T14:19:33.192Z,49.26
2022-10-12T14:22:02.663Z,49.72
2022-10-12T14:24:31.320Z,49.99
2022-10-12T14:27:01.063Z,49.93
2022-10-12T14:29:41.683Z,48.67
2022-10-12T14:32:38.338Z,47.99
2022-10-12T14:35:21.875Z,48.93
2022-10-12T14:37:52.691Z,48.50
2022-10-12T14:40:44.320Z,48.35
2022-10-12T14:43:24.201Z,48.61
2022-10-12T14:45:53.248Z,49.22
2022-10-12T14:48:23.572Z,49.18
2022-10-12T14:50:59.544Z,48.32
2022-10-12T14:53:29.553Z,48.33
2022-10-12T14:55:57.342Z,48.67
2022-10-12T14:58:26.063Z,48.38
2022-10-12T15:00:54.137Z,48.96
2022-10-12T15:03:22.120Z,49.48
2022-10-12T15:05:50.088Z,48.91
2022-10-12T15:08:19.273Z,48.86
2022-10-12T15:10:47.176Z,48.80
2022-10-12T15:13:15.290Z,49.17
2022-10-12T15:15:46.921Z,49.13
2022-10-12T15:18:14.948Z,49.23
2022-10-12T15:20:46.905Z,49.66
2022-10-12T15:23:17.138Z,49.45
2022-10-12T15:25:50.506Z,48.61
2022-10-12T15:28:19.123Z,49.24
2022-10-12T15:31:15.315Z,49.82
2022-10-12T15:33:35.067Z,49.29
2022-10-12T15:36:03.351Z,49.82
2022-10-12T15:38:31.372Z,49.91
2022-10-12T15:41:00.733Z,50.06
2022-10-12T15:43:28.748Z,49.99
2022-10-12T15:45:57.524Z,50.29
2022-10-12T15:48:27.787Z,50.26
2022-10-12T15:50:57.392Z,50.44
2022-10-12T15:53:27.501Z,50.66
2022-10-12T15:55:56.737Z,51.15
2022-10-12T15:58:26.006Z,51.33
2022-10-12T16:00:54.398Z,51.55
2022-10-12T16:03:26.019Z,51.85
2022-10-12T16:05:54.641Z,51.94
2022-10-12T16:08:22.752Z,52.37
2022-10-12T16:10:50.862Z,52.42
2022-10-12T16:13:18.898Z,53.24
2022-10-12T16:15:48.186Z,52.96
2022-10-12T16:18:16.411Z,53.13
2022-10-12T16:20:47.639Z,53.13
2022-10-12T16:23:22.989Z,53.62
2022-10-12T16:25:51.249Z,53.84
2022-10-12T16:28:19.378Z,54.25
2022-10-12T16:30:49.780Z,54.21
2022-10-12T16:33:18.329Z,54.67
2022-10-12T16:35:49.764Z,55.23
2022-10-12T16:38:20.108Z,55.42
2022-10-12T16:40:50.101Z,55.38
2022-10-12T16:43:19.522Z,55.76
2022-10-12T16:45:56.728Z,56.89
2022-10-12T16:48:24.710Z,57.31
2022-10-12T16:50:52.574Z,57.69
2022-10-12T16:53:20.512Z,58.00
2022-10-12T16:55:49.071Z,58.49
2022-10-12T16:58:16.944Z,58.42
2022-10-12T17:00:45.018Z,58.08
2022-10-12T17:03:14.459Z,58.08
2022-10-12T17:05:42.335Z,58.20
2022-10-12T17:08:15.003Z,58.69
2022-10-12T17:10:44.164Z,58.96
2022-10-12T17:13:13.588Z,59.30
2022-10-12T17:15:42.508Z,59.66
2022-10-12T17:18:10.783Z,59.77
2022-10-12T17:20:40.050Z,59.91
2022-10-12T17:23:07.852Z,60.19
2022-10-12T17:25:35.616Z,60.71
2022-10-12T17:28:03.519Z,60.49
2022-10-12T17:30:31.445Z,60.87
2022-10-12T17:32:59.403Z,60.99
2022-10-12T17:35:27.334Z,61.23
2022-10-12T17:37:56.501Z,61.33
2022-10-12T17:40:24.265Z,62.18
2022-10-12T17:42:52.135Z,62.22
2022-10-12T17:45:19.929Z,62.41
2022-10-12T17:47:49.244Z,62.93
2022-10-12T17:50:17.248Z,63.13
2022-10-12T17:52:45.741Z,63.33
2022-10-12T17:55:29.934Z,63.55
2022-10-12T17:58:03.324Z,63.94
2022-10-12T18:00:31.644Z,63.74
2022-10-12T18:02:59.923Z,63.83
2022-10-12T18:05:28.239Z,64.08
2022-10-12T18:07:56.136Z,64.41
2022-10-12T18:10:27.770Z,64.69
2022-10-12T18:12:56.691Z,64.91
2022-10-12T18:15:24.642Z,65.15
2022-10-12T18:17:52.509Z,65.24
2022-10-12T18:20:20.480Z,65.28
2022-10-12T18:22:48.344Z,65.81
2022-10-12T18:25:16.978Z,66.33
2022-10-12T18:27:47.050Z,66.12
2022-10-12T18:30:15.068Z,66.44
2022-10-12T18:32:42.995Z,67.02
2022-10-12T18:35:11.161Z,67.00
2022-10-12T18:37:39.056Z,67.70
2022-10-12T18:40:07.825Z,68.03
2022-10-12T18:42:35.653Z,67.95
2022-10-12T18:45:05.322Z,68.34
2022-10-12T18:47:33.175Z,68.24
2022-10-12T18:50:01.138Z,68.40
2022-10-12T18:52:29.298Z,68.74
2022-10-12T18:54:57.091Z,68.27
2022-10-12T18:57:30.183Z,68.73
2022-10-12T18:59:58.990Z,68.60
2022-10-12T19:02:28.351Z,68.96
2022-10-12T19:04:56.937Z,69.22
2022-10-12T19:07:25.248Z,69.54
2022-10-12T19:09:53.396Z,69.51
2022-10-12T19:12:21.504Z,70.15
2022-10-12T19:14:49.983Z,70.16
2022-10-12T19:17:18.121Z,70.14
2022-10-12T19:19:47.444Z,70.59
2022-10-12T19:22:15.499Z,70.64
2022-10-12T19:24:44.090Z,71.08
2022-10-12T19:27:12.246Z,70.83
2022-10-12T19:29:43.571Z,71.18
2022-10-12T19:32:13.715Z,70.72
2022-10-12T19:34:41.584Z,70.60
2022-10-12T19:37:10.806Z,70.36
2022-10-12T19:39:39.063Z,70.53
2022-10-12T19:42:06.951Z,70.66
2022-10-12T19:44:34.846Z,70.69
2022-10-12T19:47:03.663Z,70.97
2022-10-12T19:49:35.848Z,71.29
2022-10-12T19:52:05.471Z,71.40
2022-10-12T19:54:36.357Z,71.94
2022-10-12T19:57:04.365Z,71.62
2022-10-12T19:59:32.288Z,71.84
2022-10-12T20:02:00.101Z,71.30
2022-10-12T20:04:29.557Z,71.33
2022-10-12T20:06:57.572Z,71.53
2022-10-12T20:09:25.379Z,71.20
2022-10-12T20:11:54.648Z,71.58
2022-10-12T20:14:22.562Z,71.17
2022-10-12T20:16:50.473Z,71.40
2022-10-12T20:19:18.341Z,71.74
2022-10-12T20:21:46.480Z,71.54
2022-10-12T20:24:14.422Z,72.37
2022-10-12T20:26:42.336Z,72.42
2022-10-12T20:29:11.855Z,72.65
2022-10-12T20:31:39.729Z,72.36
2022-10-12T20:34:10.218Z,73.03
2022-10-12T20:36:38.227Z,72.56
2022-10-12T20:39:06.256Z,72.52
2022-10-12T20:41:34.333Z,72.58
2022-10-12T20:44:02.592Z,72.43
2022-10-12T20:46:31.879Z,72.52
2022-10-12T20:49:02.277Z,72.56
2022-10-12T20:51:33.104Z,72.67
2022-10-12T20:54:01.629Z,72.28
2022-10-12T20:56:32.762Z,72.59
2022-10-12T20:59:01.740Z,72.53
2022-10-12T21:01:30.965Z,72.83
2022-10-12T21:03:59.061Z,73.44
2022-10-12T21:06:26.946Z,73.11
2022-10-12T21:08:57.169Z,73.42
2022-10-12T21:11:25.830Z,73.10
2022-10-12T21:13:54.249Z,73.14
2022-10-12T21:16:22.161Z,72.94
2022-10-12T21:18:54.807Z,72.83
2022-10-12T21:21:24.113Z,72.62
2022-10-12T21:23:54.414Z,72.59
2022-10-12T21:26:24.013Z,72.90
2022-10-12T21:28:52.153Z,72.87
2022-10-12T21:31:20.985Z,72.67
2022-10-12T21:33:49.092Z,72.18
2022-10-12T21:36:20.778Z,72.50
2022-10-12T21:38:49.098Z,72.56
2022-10-12T21:41:20.642Z,72.93
2022-10-12T21:43:50.282Z,72.70
2022-10-12T21:46:21.157Z,73.09
2022-10-12T21:48:49.873Z,73.29
2022-10-12T21:51:19.785Z,73.29
2022-10-12T21:53:47.875Z,73.34
2022-10-12T21:56:18.025Z,73.51
2022-10-12T21:58:46.662Z,73.44
2022-10-12T22:01:16.540Z,72.95
2022-10-12T22:03:45.581Z,72.89
2022-10-12T22:06:15.295Z,72.88
2022-10-12T22:08:45.109Z,72.69
2022-10-12T22:11:13.880Z,72.47
2022-10-12T22:13:41.944Z,72.85
2022-10-12T22:16:12.278Z,72.39
2022-10-12T22:18:41.033Z,72.18
2022-10-12T22:21:11.817Z,72.18
2022-10-12T22:23:39.802Z,72.02
2022-10-12T22:26:12.239Z,71.56
2022-10-12T22:28:40.157Z,72.08
2022-10-12T22:31:08.746Z,72.29
2022-10-12T22:33:37.075Z,72.33
2022-10-12T22:36:06.655Z,72.35
2022-10-12T22:38:35.874Z,72.58
2022-10-12T22:41:06.220Z,72.74
2022-10-12T22:43:36.174Z,72.51
2022-10-12T22:46:05.224Z,73.14
2022-10-12T22:48:33.689Z,72.58
2022-10-12T22:51:01.553Z,72.54
2022-10-12T22:53:30.649Z,72.18
2022-10-12T22:56:00.917Z,72.24
2022-10-12T22:58:28.941Z,72.61
2022-10-12T23:01:03.885Z,71.88
2022-10-12T23:03:32.389Z,71.69
2022-10-12T23:06:00.839Z,71.13
2022-10-12T23:08:31.199Z,70.70
2022-10-12T23:11:04.890Z,71.06
2022-10-12T23:13:33.190Z,71.04
2022-10-12T23:16:07.575Z,70.54
2022-10-12T23:18:35.847Z,71.35
2022-10-12T23:21:06.001Z,71.20
2022-10-12T23:23:34.570Z,71.35
2022-10-12T23:26:04.146Z,71.09
2022-10-12T23:28:32.248Z,70.65
2022-10-12T23:31:00.310Z,70.81
2022-10-12T23:33:29.912Z,71.18
2022-10-12T23:35:58.395Z,71.42
2022-10-12T23:38:27.340Z,70.90
2022-10-12T23:40:55.334Z,70.97
2022-10-12T23:43:23.244Z,69.93
2022-10-12T23:45:51.468Z,70.54
2022-10-12T23:48:19.470Z,70.75
2022-10-12T23:50:49.081Z,70.77
2022-10-12T23:53:16.895Z,71.12
2022-10-12T23:55:45.058Z,70.48
2022-10-12T23:58:12.972Z,70.72
